Time;durP1;ratioP1;P1;durP2;ratioP2;P2;SDS_P1;SDS_P2;PMS_P1;PMS_P2;Temp;Humidity;BMP_temperature;BMP_pressure;BME280_temperature;BME280_humidity;BME280_pressure;Samples;Min_cycle;Max_cycle;Signal;HPM_P1;HPM_P2
2020/12/28 00:00:24;;;;;;;8.00;7.20;;;0.70;99.90;;;;;;4956726;28;20688;-79
2020/12/28 00:02:49;;;;;;;10.07;7.07;;;0.70;99.90;;;;;;4966348;28;20176;-80
2020/12/28 00:05:15;;;;;;;7.80;7.00;;;0.80;99.90;;;;;;4958284;28;20176;-80
2020/12/28 00:07:41;;;;;;;9.50;7.80;;;0.80;99.90;;;;;;4956758;28;20196;-79
2020/12/28 00:10:10;;;;;;;8.13;7.43;;;0.80;99.90;;;;;;4957864;28;20193;-79
2020/12/28 00:12:47;;;;;;;8.60;7.70;;;0.80;99.90;;;;;;4960928;28;20176;-80
2020/12/28 00:15:14;;;;;;;10.53;8.33;;;0.80;99.90;;;;;;4958555;28;20216;-80
2020/12/28 00:17:40;;;;;;;8.83;8.03;;;0.80;99.90;;;;;;4956402;28;20185;-79
2020/12/28 00:20:06;;;;;;;9.37;8.47;;;0.90;99.90;;;;;;4960672;28;20183;-80
2020/12/28 00:22:32;;;;;;;10.53;9.07;;;0.90;99.90;;;;;;4968267;28;20179;-80
2020/12/28 00:24:58;;;;;;;9.07;8.07;;;0.90;99.90;;;;;;4961187;28;20205;-79
2020/12/28 00:27:23;;;;;;;9.30;8.30;;;1.00;99.90;;;;;;4957946;28;20224;-79
2020/12/28 00:29:49;;;;;;;9.43;8.40;;;0.90;99.90;;;;;;4957848;28;20228;-79
2020/12/28 00:32:15;;;;;;;8.93;7.97;;;0.90;99.90;;;;;;4956491;28;20181;-79
2020/12/28 00:34:41;;;;;;;8.77;7.70;;;1.00;99.90;;;;;;4958618;28;20586;-80
2020/12/28 00:37:07;;;;;;;8.50;7.67;;;1.00;99.90;;;;;;4956219;29;20192;-79
2020/12/28 00:39:32;;;;;;;9.17;8.27;;;1.00;99.90;;;;;;4957209;28;20205;-80
2020/12/28 00:41:58;;;;;;;11.10;8.53;;;1.00;99.90;;;;;;4957725;28;20180;-79
2020/12/28 00:44:24;;;;;;;8.70;7.90;;;0.90;99.90;;;;;;4957740;28;20198;-79
2020/12/28 00:46:50;;;;;;;8.70;7.77;;;1.00;99.90;;;;;;4967307;28;20547;-80
2020/12/28 00:49:16;;;;;;;10.57;7.97;;;1.00;99.90;;;;;;4959892;28;20173;-80
2020/12/28 00:51:41;;;;;;;8.53;7.63;;;1.00;99.90;;;;;;4957393;28;20194;-79
2020/12/28 00:54:07;;;;;;;250.77;62.77;;;1.00;99.90;;;;;;4957737;28;20208;-80
2020/12/28 00:56:33;;;;;;;8.90;7.70;;;1.00;99.90;;;;;;4957101;28;20173;-80
2020/12/28 00:58:58;;;;;;;46.93;17.57;;;1.00;99.90;;;;;;4967365;28;20231;-79
2020/12/28 01:01:24;;;;;;;21.67;11.23;;;0.90;99.90;;;;;;4959730;28;20236;-79
2020/12/28 01:03:49;;;;;;;20.83;11.53;;;0.90;99.90;;;;;;4958303;28;20667;-79
2020/12/28 01:06:15;;;;;;;17.17;10.57;;;1.00;99.90;;;;;;4974459;28;20176;-79
2020/12/28 01:08:41;;;;;;;15.07;10.60;;;1.00;99.90;;;;;;4959571;28;20603;-80
2020/12/28 01:11:07;;;;;;;11.77;8.33;;;1.00;99.90;;;;;;4960659;28;20204;-79
2020/12/28 01:13:33;;;;;;;11.13;8.60;;;1.00;99.90;;;;;;4961112;28;20239;-79
2020/12/28 01:15:59;;;;;;;10.07;9.03;;;1.00;99.90;;;;;;4960224;28;20216;-79
2020/12/28 01:18:25;;;;;;;11.70;8.97;;;1.00;99.90;;;;;;4960322;28;20540;-80
2020/12/28 01:20:51;;;;;;;10.20;8.07;;;0.90;99.90;;;;;;4970041;28;20180;-79
2020/12/28 01:23:16;;;;;;;8.90;8.10;;;1.00;99.90;;;;;;4963393;28;20208;-81
2020/12/28 01:25:42;;;;;;;9.23;8.20;;;1.10;99.90;;;;;;4960531;28;20197;-80
2020/12/28 01:28:08;;;;;;;9.20;8.30;;;1.10;99.90;;;;;;4959611;29;20184;-80
2020/12/28 01:30:34;;;;;;;9.73;8.80;;;1.10;99.90;;;;;;4973842;28;20216;-79
2020/12/28 01:33:01;;;;;;;9.10;8.20;;;1.10;99.90;;;;;;4966956;28;20548;-79
2020/12/28 01:35:28;;;;;;;9.70;8.70;;;1.10;99.90;;;;;;4965839;28;20178;-80
2020/12/28 01:37:53;;;;;;;9.47;8.57;;;1.10;99.90;;;;;;4966245;28;20183;-80
2020/12/28 01:40:19;;;;;;;8.63;7.73;;;1.10;99.90;;;;;;4967985;28;20552;-79
2020/12/28 01:42:45;;;;;;;9.27;7.90;;;1.10;99.90;;;;;;4959917;28;20181;-79
2020/12/28 01:45:11;;;;;;;8.30;7.50;;;1.00;99.90;;;;;;4958861;28;20180;-79
2020/12/28 01:47:39;;;;;;;8.97;8.07;;;1.10;99.90;;;;;;4960405;28;20181;-80
2020/12/28 01:50:05;;;;;;;8.63;7.73;;;1.00;99.90;;;;;;4959585;28;20200;-80
2020/12/28 01:52:31;;;;;;;9.10;8.20;;;1.00;99.90;;;;;;4960583;28;20527;-79
2020/12/28 01:54:57;;;;;;;9.53;8.53;;;0.90;99.90;;;;;;4965040;28;20255;-79
2020/12/28 01:57:23;;;;;;;10.10;8.40;;;0.90;99.90;;;;;;4967381;28;20177;-79
2020/12/28 01:59:49;;;;;;;9.27;8.00;;;0.90;99.90;;;;;;4973533;28;20180;-79
2020/12/28 02:02:18;;;;;;;9.43;8.50;;;0.90;99.90;;;;;;4969650;28;20577;-80
2020/12/28 02:04:44;;;;;;;9.20;8.00;;;0.90;99.90;;;;;;4962654;28;20213;-79
2020/12/28 02:07:13;;;;;;;9.47;8.50;;;1.00;99.90;;;;;;4959645;28;20173;-79
2020/12/28 02:09:44;;;;;;;9.43;8.30;;;1.00;99.90;;;;;;4958129;28;20181;-79
2020/12/28 02:12:09;;;;;;;8.13;7.33;;;1.00;99.90;;;;;;4959728;28;20166;-79
2020/12/28 02:14:35;;;;;;;9.70;8.40;;;1.00;99.90;;;;;;4981386;23;20221;-79
2020/12/28 02:17:01;;;;;;;9.50;8.03;;;1.00;99.90;;;;;;4961785;28;20270;-79
2020/12/28 02:19:27;;;;;;;9.57;8.60;;;1.00;99.90;;;;;;4978790;28;20184;-80
2020/12/28 02:21:56;;;;;;;8.60;7.80;;;1.00;99.90;;;;;;4977961;28;20201;-79
2020/12/28 02:24:22;;;;;;;8.40;7.03;;;1.00;99.90;;;;;;4968835;28;20215;-79
2020/12/28 02:26:47;;;;;;;11.03;7.57;;;1.00;99.90;;;;;;4979271;28;20180;-79
2020/12/28 02:29:14;;;;;;;8.23;7.43;;;1.10;99.90;;;;;;4979552;28;20184;-79
2020/12/28 02:31:40;;;;;;;8.43;6.90;;;1.10;99.90;;;;;;4970181;28;20196;-79
2020/12/28 02:34:06;;;;;;;9.03;7.40;;;1.10;99.90;;;;;;4965555;28;20260;-79
2020/12/28 02:36:32;;;;;;;7.77;6.97;;;1.10;99.90;;;;;;4964819;28;20184;-80
2020/12/28 02:38:58;;;;;;;8.20;7.50;;;1.10;99.90;;;;;;4977182;28;20667;-79
2020/12/28 02:41:25;;;;;;;8.07;7.20;;;1.10;99.90;;;;;;4977495;28;20581;-79
2020/12/28 02:43:51;;;;;;;7.80;6.90;;;1.10;99.90;;;;;;4977509;28;20177;-79
2020/12/28 02:46:18;;;;;;;8.43;7.07;;;1.10;99.90;;;;;;4978627;28;20180;-80
2020/12/28 02:48:43;;;;;;;8.93;7.93;;;1.20;99.90;;;;;;4977523;28;20184;-80
2020/12/28 02:51:13;;;;;;;7.80;7.07;;;1.10;99.90;;;;;;4978248;28;20196;-79
2020/12/28 02:53:39;;;;;;;7.90;7.10;;;1.10;99.90;;;;;;4979292;28;20223;-79
2020/12/28 02:56:06;;;;;;;8.20;7.40;;;1.20;99.90;;;;;;4980192;28;20211;-79
2020/12/28 02:58:31;;;;;;;8.40;7.67;;;1.20;99.90;;;;;;4978527;28;20181;-79
2020/12/28 03:00:57;;;;;;;8.97;8.10;;;1.20;99.90;;;;;;4978749;28;20181;-80
2020/12/28 03:03:23;;;;;;;9.43;8.43;;;1.20;99.90;;;;;;4977073;28;20369;-79
2020/12/28 03:05:49;;;;;;;8.67;7.87;;;1.20;99.90;;;;;;4978589;28;20343;-79
2020/12/28 03:08:14;;;;;;;26.77;13.60;;;1.20;99.90;;;;;;4977024;28;20208;-80
2020/12/28 03:10:40;;;;;;;12.73;10.57;;;1.20;99.90;;;;;;4976654;28;20287;-79
2020/12/28 03:13:06;;;;;;;10.00;8.27;;;1.20;99.90;;;;;;4967774;28;20212;-79
2020/12/28 03:15:32;;;;;;;25.37;14.50;;;1.20;99.90;;;;;;4978320;28;20691;-78
2020/12/28 03:17:58;;;;;;;24.37;14.67;;;1.10;99.90;;;;;;4978277;28;20188;-79
2020/12/28 03:20:23;;;;;;;13.50;10.43;;;1.10;99.90;;;;;;4972085;28;20200;-79
2020/12/28 03:22:49;;;;;;;13.90;10.87;;;1.10;99.90;;;;;;4977098;28;20222;-78
2020/12/28 03:25:14;;;;;;;99.47;37.03;;;1.20;99.90;;;;;;4975071;28;20204;-78
2020/12/28 03:27:41;;;;;;;10.87;9.03;;;1.20;99.90;;;;;;4976018;28;20192;-78
2020/12/28 03:30:06;;;;;;;10.47;8.50;;;1.20;99.90;;;;;;4959809;28;20211;-79
2020/12/28 03:32:32;;;;;;;22.60;13.30;;;1.20;99.90;;;;;;4977145;28;20187;-77
2020/12/28 03:34:58;;;;;;;14.13;10.53;;;1.20;99.90;;;;;;4979051;28;20207;-78
2020/12/28 03:37:24;;;;;;;12.90;9.97;;;1.20;99.90;;;;;;4978228;28;20188;-77
2020/12/28 03:39:49;;;;;;;9.50;8.60;;;1.20;99.90;;;;;;4977975;28;20651;-78
2020/12/28 03:42:15;;;;;;;9.03;8.03;;;1.30;99.90;;;;;;4977378;28;20244;-79
2020/12/28 03:44:41;;;;;;;8.90;8.00;;;1.20;99.90;;;;;;4977556;28;20206;-78
2020/12/28 03:47:07;;;;;;;9.63;8.63;;;1.30;99.90;;;;;;4978136;28;20200;-79
2020/12/28 03:49:32;;;;;;;8.37;7.57;;;1.40;99.90;;;;;;4975999;28;20172;-79
2020/12/28 03:51:58;;;;;;;8.43;7.60;;;1.30;99.90;;;;;;4975805;28;20630;-79
2020/12/28 03:54:24;;;;;;;8.60;7.80;;;1.40;99.90;;;;;;4977724;28;20208;-79
2020/12/28 03:56:50;;;;;;;8.47;7.67;;;1.40;99.90;;;;;;4976439;28;20190;-78
2020/12/28 03:59:16;;;;;;;9.13;8.03;;;1.30;99.90;;;;;;4977811;28;20187;-77
2020/12/28 04:01:42;;;;;;;8.60;7.73;;;1.40;99.90;;;;;;4977734;28;20559;-79
2020/12/28 04:04:07;;;;;;;8.40;7.60;;;1.40;99.90;;;;;;4977838;28;20204;-78
2020/12/28 04:06:33;;;;;;;8.80;7.90;;;1.40;99.90;;;;;;4977560;28;20186;-78
2020/12/28 04:08:59;;;;;;;10.27;7.80;;;1.40;99.90;;;;;;4977915;28;20195;-79
2020/12/28 04:11:25;;;;;;;10.57;8.20;;;1.40;99.90;;;;;;4970003;28;20216;-78
2020/12/28 04:13:51;;;;;;;8.90;7.93;;;1.30;99.90;;;;;;4976759;28;20180;-79
2020/12/28 04:16:17;;;;;;;10.53;8.63;;;1.30;99.90;;;;;;4974800;28;20180;-77
2020/12/28 04:18:43;;;;;;;9.40;8.30;;;1.30;99.90;;;;;;4976388;28;20176;-78
2020/12/28 04:21:09;;;;;;;8.40;7.53;;;1.40;99.90;;;;;;4975116;28;20533;-78
2020/12/28 04:23:35;;;;;;;8.70;7.80;;;1.30;99.90;;;;;;4977407;28;20192;-77
2020/12/28 04:26:03;;;;;;;10.30;7.60;;;1.30;99.90;;;;;;4977415;28;20283;-79
2020/12/28 04:28:29;;;;;;;8.30;7.50;;;1.30;99.90;;;;;;4977439;28;20185;-78
2020/12/28 04:30:55;;;;;;;8.17;6.70;;;1.30;99.90;;;;;;4977607;28;20200;-79
2020/12/28 04:33:21;;;;;;;8.33;7.60;;;1.30;99.90;;;;;;4978039;28;20250;-78
2020/12/28 04:35:47;;;;;;;8.73;6.80;;;1.30;99.90;;;;;;4977453;28;20687;-78
2020/12/28 04:38:12;;;;;;;9.30;8.30;;;1.40;99.90;;;;;;4964052;28;20255;-78
2020/12/28 04:40:38;;;;;;;8.43;7.63;;;1.30;99.90;;;;;;4980557;28;20536;-79
2020/12/28 04:43:10;;;;;;;8.70;7.90;;;1.30;99.90;;;;;;4981312;28;20191;-78
2020/12/28 04:45:36;;;;;;;8.83;8.03;;;1.40;99.90;;;;;;4964280;28;20580;-79
2020/12/28 04:48:06;;;;;;;8.03;7.23;;;1.40;99.90;;;;;;4980557;28;20184;-79
2020/12/28 04:50:31;;;;;;;8.27;7.47;;;1.40;99.90;;;;;;4981279;28;20196;-79
2020/12/28 04:52:58;;;;;;;8.60;7.70;;;1.30;99.90;;;;;;4981301;28;20239;-79
2020/12/28 04:55:24;;;;;;;8.37;7.57;;;1.40;99.90;;;;;;4978346;28;20208;-79
2020/12/28 04:57:49;;;;;;;8.63;7.83;;;1.40;99.90;;;;;;4980903;28;20283;-79
2020/12/28 05:00:16;;;;;;;9.20;8.10;;;1.40;99.90;;;;;;4959721;28;20746;-79
2020/12/28 05:02:42;;;;;;;8.53;7.50;;;1.40;99.90;;;;;;4962036;28;20555;-77
2020/12/28 05:05:08;;;;;;;9.30;8.40;;;1.40;99.90;;;;;;4968254;28;20196;-78
2020/12/28 05:07:35;;;;;;;8.60;7.80;;;1.40;99.90;;;;;;4966507;28;20207;-78
2020/12/28 05:10:00;;;;;;;8.47;7.67;;;1.50;99.90;;;;;;4975556;28;20200;-78
2020/12/28 05:12:26;;;;;;;7.47;6.77;;;1.50;99.90;;;;;;4969538;28;20519;-78
2020/12/28 05:15:06;;;;;;;6.90;6.17;;;1.60;99.90;;;;;;4969522;28;20220;-79
2020/12/28 05:17:33;;;;;;;7.17;6.47;;;1.60;99.90;;;;;;4977826;28;20654;-79
2020/12/28 05:20:00;;;;;;;7.23;6.63;;;1.70;99.90;;;;;;4977008;28;20533;-78
2020/12/28 05:22:33;;;;;;;13.67;8.47;;;1.60;99.90;;;;;;4977041;28;20173;-78
2020/12/28 05:24:59;;;;;;;10.80;8.07;;;1.60;99.90;;;;;;4978690;28;20227;-81
2020/12/28 05:27:25;;;;;;;8.37;7.53;;;1.60;99.90;;;;;;4945750;28;20188;-81
2020/12/28 05:29:51;;;;;;;8.63;7.80;;;1.60;99.90;;;;;;4949834;28;20198;-77
2020/12/28 05:32:18;;;;;;;9.53;7.30;;;1.60;99.90;;;;;;4964759;28;20240;-80
2020/12/28 05:34:46;;;;;;;8.13;7.30;;;1.60;99.90;;;;;;4979945;28;20235;-79
2020/12/28 05:37:14;;;;;;;6.83;6.23;;;1.60;99.90;;;;;;4980190;28;20239;-79
2020/12/28 05:39:45;;;;;;;7.20;6.03;;;1.60;99.90;;;;;;4980308;28;20188;-80
2020/12/28 05:42:12;;;;;;;6.47;5.90;;;1.60;99.90;;;;;;4979629;28;20647;-78
2020/12/28 05:44:39;;;;;;;7.40;6.70;;;1.60;99.90;;;;;;4979963;28;20196;-80
2020/12/28 05:47:16;;;;;;;7.27;6.33;;;1.60;99.90;;;;;;4979861;28;20651;-79
2020/12/28 05:49:43;;;;;;;8.00;6.23;;;1.60;99.90;;;;;;4979453;28;20188;-78
2020/12/28 05:52:10;;;;;;;6.73;6.03;;;1.60;99.90;;;;;;4979247;28;20616;-80
2020/12/28 05:54:37;;;;;;;7.47;6.77;;;1.60;99.90;;;;;;4979415;28;20268;-78
2020/12/28 05:57:04;;;;;;;18.30;12.37;;;1.60;99.90;;;;;;4979701;28;20593;-79
2020/12/28 05:59:31;;;;;;;9.53;7.50;;;1.60;99.90;;;;;;4978315;28;20211;-80
2020/12/28 06:01:58;;;;;;;7.03;6.43;;;1.60;99.90;;;;;;4978470;28;20188;-79
2020/12/28 06:04:24;;;;;;;8.77;7.87;;;1.60;99.90;;;;;;4979326;28;20211;-78
2020/12/28 06:06:56;;;;;;;8.60;7.60;;;1.60;99.90;;;;;;4979487;28;20208;-79
2020/12/28 06:09:23;;;;;;;7.87;7.10;;;1.70;99.90;;;;;;4979568;28;20191;-80
2020/12/28 06:11:48;;;;;;;7.90;7.10;;;1.60;99.90;;;;;;4969149;28;20578;-80
2020/12/28 06:14:16;;;;;;;44.43;23.50;;;1.70;99.90;;;;;;4979438;28;20212;-80
2020/12/28 06:16:43;;;;;;;9.13;7.97;;;1.70;99.90;;;;;;4979386;28;20185;-80
2020/12/28 06:19:24;;;;;;;8.00;7.20;;;1.60;99.90;;;;;;4979533;28;20639;-80
2020/12/28 06:21:53;;;;;;;8.40;7.53;;;1.60;99.90;;;;;;4979093;28;20180;-80
2020/12/28 06:24:31;;;;;;;7.23;6.63;;;1.60;99.90;;;;;;4979565;28;20204;-80
2020/12/28 06:27:04;;;;;;;8.53;7.63;;;1.60;99.90;;;;;;4976036;28;20272;-80
2020/12/28 06:29:30;;;;;;;9.07;8.23;;;1.70;99.90;;;;;;4975818;28;20207;-80
2020/12/28 06:31:56;;;;;;;49.23;24.70;;;1.70;99.90;;;;;;4977806;28;20598;-79
2020/12/28 06:34:22;;;;;;;19.90;13.10;;;1.70;99.90;;;;;;4978358;28;20211;-78
2020/12/28 06:37:01;;;;;;;17.17;12.43;;;1.60;99.90;;;;;;4978634;28;20187;-80
2020/12/28 06:39:28;;;;;;;23.83;14.83;;;1.70;99.90;;;;;;4978897;28;20203;-78
2020/12/28 06:41:54;;;;;;;12.43;11.07;;;1.70;99.90;;;;;;4978518;28;20191;-79
2020/12/28 06:44:27;;;;;;;14.30;11.87;;;1.60;99.90;;;;;;4977255;28;20240;-79
2020/12/28 06:46:53;;;;;;;11.53;10.50;;;1.60;99.90;;;;;;4977030;28;20180;-79
2020/12/28 06:49:19;;;;;;;12.20;10.30;;;1.60;99.90;;;;;;4978240;28;20196;-78
2020/12/28 06:51:45;;;;;;;10.20;9.17;;;1.60;99.90;;;;;;4978092;28;20196;-80
2020/12/28 06:54:11;;;;;;;16.67;10.97;;;1.60;99.90;;;;;;4976669;28;20230;-80
2020/12/28 06:56:36;;;;;;;10.67;9.57;;;1.60;99.90;;;;;;4977711;28;20199;-79
2020/12/28 06:59:02;;;;;;;10.83;9.60;;;1.70;99.90;;;;;;4978210;28;20574;-78
2020/12/28 07:01:29;;;;;;;18.20;10.70;;;1.70;99.90;;;;;;4977525;28;20271;-80
2020/12/28 07:03:55;;;;;;;36.77;16.60;;;1.70;99.90;;;;;;4979029;28;20192;-80
2020/12/28 07:06:21;;;;;;;18.60;11.37;;;1.60;99.90;;;;;;4976582;28;20666;-80
2020/12/28 07:08:47;;;;;;;43.13;19.33;;;1.60;99.90;;;;;;4977558;28;20279;-79
2020/12/28 07:11:19;;;;;;;25.73;13.07;;;1.60;99.90;;;;;;4971941;28;20233;-80
2020/12/28 07:13:48;;;;;;;13.27;10.13;;;1.50;99.90;;;;;;4963342;28;20212;-79
2020/12/28 07:16:14;;;;;;;33.10;16.43;;;1.60;99.90;;;;;;4979866;28;20199;-80
2020/12/28 07:18:40;;;;;;;10.23;9.20;;;1.50;99.90;;;;;;4980353;28;20228;-80
2020/12/28 07:21:06;;;;;;;12.67;10.23;;;1.60;99.90;;;;;;4978155;28;20621;-80
2020/12/28 07:23:33;;;;;;;11.53;9.47;;;1.50;99.90;;;;;;4976231;28;20668;-80
2020/12/28 07:26:12;;;;;;;11.50;10.17;;;1.50;99.90;;;;;;4976335;28;20201;-80
2020/12/28 07:28:40;;;;;;;9.10;8.30;;;1.50;99.90;;;;;;4977427;28;20188;-79
2020/12/28 07:31:07;;;;;;;11.50;9.03;;;1.50;99.90;;;;;;4976191;28;20192;-78
2020/12/28 07:33:34;;;;;;;10.17;9.20;;;1.50;99.90;;;;;;4977741;28;20173;-79
2020/12/28 07:36:05;;;;;;;9.13;8.33;;;1.40;99.90;;;;;;4977589;28;20228;-79
2020/12/28 07:38:31;;;;;;;9.00;8.20;;;1.50;99.90;;;;;;4977584;28;20176;-79
2020/12/28 07:40:57;;;;;;;9.50;8.07;;;1.40;99.90;;;;;;4977132;28;20180;-80
2020/12/28 07:43:22;;;;;;;10.03;8.13;;;1.50;99.90;;;;;;4977293;28;20235;-79
2020/12/28 07:45:48;;;;;;;9.10;8.20;;;1.50;99.90;;;;;;4976557;28;20702;-79
2020/12/28 07:48:19;;;;;;;10.93;9.93;;;1.60;99.90;;;;;;4976653;28;20670;-78
2020/12/28 07:50:52;;;;;;;9.83;8.37;;;1.60;99.90;;;;;;4978010;28;20266;-79
2020/12/28 07:53:24;;;;;;;10.43;9.40;;;1.60;99.90;;;;;;4977254;28;20646;-79
2020/12/28 07:56:05;;;;;;;13.40;10.33;;;1.70;99.90;;;;;;4977778;28;20196;-80
2020/12/28 07:58:52;;;;;;;11.70;10.70;;;1.70;99.90;;;;;;4977799;28;20187;-80
2020/12/28 08:01:45;;;;;;;12.53;10.67;;;1.70;99.90;;;;;;4976034;28;20180;-80
2020/12/28 08:04:26;;;;;;;14.83;10.23;;;1.70;99.90;;;;;;4976024;28;20211;-79
2020/12/28 08:06:57;;;;;;;12.03;9.97;;;1.70;99.90;;;;;;4976219;28;20180;-80
2020/12/28 08:09:23;;;;;;;9.60;8.70;;;1.60;99.90;;;;;;4977838;28;20224;-80
2020/12/28 08:12:00;;;;;;;9.13;8.33;;;1.60;99.90;;;;;;4968871;28;20677;-80
2020/12/28 08:14:27;;;;;;;9.30;8.40;;;1.60;99.90;;;;;;4980896;28;20223;-80
2020/12/28 08:16:53;;;;;;;9.73;8.73;;;1.70;99.90;;;;;;4982572;23;20237;-74
2020/12/28 08:19:29;;;;;;;9.87;8.90;;;1.70;99.90;;;;;;4950371;28;20204;-75
2020/12/28 08:21:55;;;;;;;25.83;17.63;;;1.70;99.90;;;;;;4958364;28;20180;-75
2020/12/28 08:24:22;;;;;;;37.53;23.17;;;1.70;99.90;;;;;;4942835;29;20650;-76
2020/12/28 08:26:49;;;;;;;34.80;21.63;;;1.80;99.90;;;;;;4936753;29;20197;-73
2020/12/28 08:29:15;;;;;;;19.53;14.97;;;1.80;99.90;;;;;;4940172;29;20265;-74
2020/12/28 08:31:42;;;;;;;16.57;13.27;;;1.80;99.90;;;;;;4939444;29;20201;-75
2020/12/28 08:34:15;;;;;;;17.10;14.13;;;1.80;99.90;;;;;;4939622;29;20204;-75
2020/12/28 08:36:50;;;;;;;17.57;14.40;;;1.80;99.90;;;;;;4935848;29;20199;-75
2020/12/28 08:39:21;;;;;;;21.97;15.80;;;1.80;99.90;;;;;;4939496;29;20205;-75
2020/12/28 08:42:05;;;;;;;20.70;16.13;;;1.80;99.90;;;;;;4939442;29;20648;-76
2020/12/28 08:44:33;;;;;;;20.53;16.13;;;1.80;99.90;;;;;;4938317;29;20190;-75
2020/12/28 08:46:59;;;;;;;17.93;14.33;;;1.80;99.90;;;;;;4939183;29;20202;-74
2020/12/28 08:49:33;;;;;;;15.53;13.87;;;1.90;99.90;;;;;;4939373;29;20237;-75
2020/12/28 08:52:12;;;;;;;15.87;14.13;;;1.80;99.90;;;;;;4937804;29;20703;-74
2020/12/28 08:54:38;;;;;;;17.03;11.87;;;1.80;99.90;;;;;;4939231;29;20291;-74
2020/12/28 08:57:04;;;;;;;9.83;8.93;;;1.80;99.90;;;;;;4937990;29;20197;-73
2020/12/28 08:59:30;;;;;;;15.10;12.07;;;1.80;99.90;;;;;;4939041;29;20170;-72
2020/12/28 09:01:57;;;;;;;15.07;12.27;;;1.70;99.90;;;;;;4939130;29;20182;-74
2020/12/28 09:04:24;;;;;;;30.63;21.47;;;1.70;99.90;;;;;;4920152;29;20703;-74
2020/12/28 09:06:51;;;;;;;14.13;11.37;;;1.60;99.90;;;;;;4931173;29;20198;-74
2020/12/28 09:09:17;;;;;;;15.87;13.80;;;1.70;99.90;;;;;;4938857;29;20173;-74
2020/12/28 09:11:43;;;;;;;12.67;11.47;;;1.70;99.90;;;;;;4938758;29;20210;-75
2020/12/28 09:14:09;;;;;;;17.73;14.03;;;1.70;99.90;;;;;;4925071;29;20190;-75
2020/12/28 09:16:35;;;;;;;12.87;11.57;;;1.70;99.90;;;;;;4937454;29;20684;-74
2020/12/28 09:19:01;;;;;;;10.73;9.63;;;1.80;99.90;;;;;;4938655;29;20286;-76
2020/12/28 09:21:27;;;;;;;9.83;8.93;;;1.80;99.90;;;;;;4938600;29;20248;-75
2020/12/28 09:23:53;;;;;;;15.33;11.27;;;1.80;99.90;;;;;;4938841;29;20568;-75
2020/12/28 09:26:18;;;;;;;16.40;12.10;;;1.80;99.90;;;;;;4937708;29;20198;-75
2020/12/28 09:28:44;;;;;;;12.93;11.33;;;1.80;99.90;;;;;;4938708;29;20540;-74
2020/12/28 09:31:11;;;;;;;18.23;14.27;;;1.90;99.90;;;;;;4938633;29;20542;-75
2020/12/28 09:33:37;;;;;;;15.60;13.00;;;1.90;99.90;;;;;;4938363;29;20170;-75
2020/12/28 09:36:03;;;;;;;17.03;13.30;;;2.00;99.90;;;;;;4936197;29;20257;-75
2020/12/28 09:38:29;;;;;;;13.43;12.03;;;1.90;99.90;;;;;;4919394;29;20177;-75
2020/12/28 09:40:55;;;;;;;15.00;11.70;;;1.90;99.90;;;;;;4921076;29;20643;-75
2020/12/28 09:43:21;;;;;;;13.90;12.23;;;1.90;99.90;;;;;;4921633;29;20656;-74
2020/12/28 09:45:47;;;;;;;12.83;11.53;;;1.90;99.90;;;;;;4919436;29;20221;-74
2020/12/28 09:48:13;;;;;;;11.90;10.80;;;1.90;99.90;;;;;;4918072;29;20191;-75
2020/12/28 09:50:41;;;;;;;11.03;9.73;;;2.00;99.90;;;;;;4926242;29;20213;-75
2020/12/28 09:53:06;;;;;;;11.70;10.50;;;1.90;99.90;;;;;;4937891;29;20546;-75
2020/12/28 09:55:32;;;;;;;10.67;9.63;;;2.00;99.90;;;;;;4940809;29;20213;-76
2020/12/28 09:57:58;;;;;;;11.37;10.13;;;2.00;99.90;;;;;;4941752;29;20182;-76
2020/12/28 10:00:23;;;;;;;11.80;10.60;;;2.00;99.90;;;;;;4939539;29;20178;-75
2020/12/28 10:02:49;;;;;;;12.20;10.93;;;2.00;99.90;;;;;;4928552;29;20173;-74
2020/12/28 10:05:15;;;;;;;16.57;12.27;;;2.10;99.90;;;;;;4936721;29;20264;-76
2020/12/28 10:07:43;;;;;;;13.73;12.30;;;2.00;99.90;;;;;;4934524;29;20182;-75
2020/12/28 10:10:09;;;;;;;14.90;12.57;;;2.10;99.90;;;;;;4916408;29;20182;-75
2020/12/28 10:12:36;;;;;;;15.70;12.30;;;2.00;99.90;;;;;;4924062;29;20185;-75
2020/12/28 10:15:03;;;;;;;13.40;11.70;;;2.00;99.90;;;;;;4930578;29;20174;-75
2020/12/28 10:17:29;;;;;;;11.87;10.73;;;2.00;99.90;;;;;;4936329;29;20666;-76
2020/12/28 10:19:55;;;;;;;14.50;11.77;;;2.00;99.90;;;;;;4937531;29;20171;-75
2020/12/28 10:22:21;;;;;;;14.57;12.17;;;2.10;99.90;;;;;;4925397;29;20182;-76
2020/12/28 10:24:46;;;;;;;15.60;13.57;;;2.10;99.90;;;;;;4926605;29;20182;-75
2020/12/28 10:27:13;;;;;;;14.40;12.80;;;2.10;99.90;;;;;;4937316;29;20210;-76
2020/12/28 10:29:39;;;;;;;23.97;15.50;;;2.10;99.90;;;;;;4937091;29;20525;-75
2020/12/28 10:32:04;;;;;;;20.97;15.93;;;2.10;99.90;;;;;;4936615;29;20198;-76
2020/12/28 10:34:30;;;;;;;15.00;13.50;;;2.10;99.90;;;;;;4936999;29;20229;-76
2020/12/28 10:36:56;;;;;;;15.40;13.20;;;2.10;99.90;;;;;;4930578;29;20683;-75
2020/12/28 10:39:21;;;;;;;12.60;11.27;;;2.10;99.90;;;;;;4936563;29;20268;-75
2020/12/28 10:41:47;;;;;;;13.47;12.10;;;2.10;99.90;;;;;;4935066;29;20235;-76
2020/12/28 10:44:13;;;;;;;22.63;15.53;;;2.10;99.90;;;;;;4936885;29;20273;-76
2020/12/28 10:46:40;;;;;;;22.17;16.17;;;2.10;99.90;;;;;;4935444;29;20297;-76
2020/12/28 10:49:06;;;;;;;14.47;12.90;;;2.10;99.90;;;;;;4935632;29;20208;-77
2020/12/28 10:51:32;;;;;;;15.17;12.70;;;2.10;99.90;;;;;;4931388;29;20205;-76
2020/12/28 10:53:58;;;;;;;14.50;13.03;;;2.10;99.90;;;;;;4936828;29;20526;-76
2020/12/28 10:56:25;;;;;;;14.70;13.13;;;2.10;99.90;;;;;;4932854;29;20205;-76
2020/12/28 10:58:58;;;;;;;17.30;12.23;;;2.10;99.90;;;;;;5086148;27;21135;-76
2020/12/28 11:01:26;;;;;;;16.87;14.27;;;2.00;99.90;;;;;;5088393;28;20212;-75
2020/12/28 11:03:52;;;;;;;13.80;12.40;;;2.00;99.90;;;;;;5075965;28;20204;-75
2020/12/28 11:06:19;;;;;;;14.93;12.63;;;2.00;99.90;;;;;;5075845;28;20679;-75
2020/12/28 11:08:45;;;;;;;13.73;12.27;;;1.90;99.90;;;;;;5071098;28;20176;-74
2020/12/28 11:11:11;;;;;;;13.70;12.13;;;2.00;99.90;;;;;;5086515;28;20177;-76
2020/12/28 11:13:37;;;;;;;17.73;14.80;;;2.10;99.90;;;;;;5072042;28;20213;-75
2020/12/28 11:16:03;;;;;;;17.60;15.70;;;2.10;99.90;;;;;;5074500;28;20196;-75
2020/12/28 11:18:29;;;;;;;19.57;15.13;;;2.00;99.90;;;;;;5077162;28;20672;-75
2020/12/28 11:20:55;;;;;;;15.67;13.83;;;2.00;99.90;;;;;;5083992;28;20263;-75
2020/12/28 11:23:20;;;;;;;17.00;15.20;;;2.00;99.90;;;;;;5087346;28;20252;-75
2020/12/28 11:25:48;;;;;;;17.93;15.30;;;2.10;99.90;;;;;;5068808;28;20321;-76
2020/12/28 11:28:14;;;;;;;20.17;16.87;;;2.10;99.90;;;;;;5083350;28;20185;-76
2020/12/28 11:30:40;;;;;;;20.80;17.60;;;2.20;99.90;;;;;;5072980;28;20189;-74
2020/12/28 11:33:06;;;;;;;18.47;15.50;;;2.10;99.90;;;;;;5077250;28;20731;-74
2020/12/28 11:35:32;;;;;;;15.80;13.27;;;2.10;99.90;;;;;;5084032;28;20222;-74
2020/12/28 11:37:58;;;;;;;12.57;11.43;;;2.10;99.90;;;;;;5085314;28;20231;-76
2020/12/28 11:40:24;;;;;;;12.83;11.73;;;2.10;99.90;;;;;;5088537;28;20191;-75
2020/12/28 11:42:50;;;;;;;12.33;11.17;;;2.20;99.90;;;;;;5090199;28;20206;-74
2020/12/28 11:45:16;;;;;;;13.10;11.80;;;2.10;99.90;;;;;;5088567;28;20259;-75
2020/12/28 11:47:42;;;;;;;13.43;12.00;;;2.10;99.90;;;;;;5090370;28;20301;-76
2020/12/28 11:50:08;;;;;;;13.43;12.03;;;2.20;99.90;;;;;;5090112;28;20201;-75
2020/12/28 11:52:34;;;;;;;14.97;12.87;;;2.20;99.90;;;;;;5070701;28;20183;-76
2020/12/28 11:55:00;;;;;;;15.07;13.53;;;2.10;99.90;;;;;;5083598;28;20193;-75
2020/12/28 11:57:26;;;;;;;13.67;12.27;;;2.10;99.90;;;;;;5088302;28;20204;-75
2020/12/28 11:59:51;;;;;;;13.47;12.17;;;2.10;99.90;;;;;;5079854;28;20588;-74
2020/12/28 12:02:20;;;;;;;11.87;10.77;;;2.10;99.90;;;;;;5088627;28;20172;-75
2020/12/28 12:04:49;;;;;;;12.07;10.87;;;2.00;99.90;;;;;;5089620;28;20203;-75
2020/12/28 12:07:18;;;;;;;11.40;10.30;;;2.10;99.90;;;;;;5088039;28;20196;-74
2020/12/28 12:09:44;;;;;;;10.73;9.67;;;2.00;99.90;;;;;;5079575;28;20251;-75
2020/12/28 12:12:10;;;;;;;10.13;9.13;;;2.00;99.90;;;;;;5074277;28;20219;-75
2020/12/28 12:14:36;;;;;;;10.27;9.37;;;2.10;99.90;;;;;;5058631;28;20181;-75
2020/12/28 12:17:01;;;;;;;9.77;8.90;;;2.00;99.90;;;;;;5075665;28;20255;-75
2020/12/28 12:19:27;;;;;;;9.50;8.50;;;2.00;99.90;;;;;;5066429;28;20173;-76
2020/12/28 12:21:53;;;;;;;9.43;8.63;;;2.10;99.90;;;;;;5070673;28;20189;-75
2020/12/28 12:24:19;;;;;;;8.37;7.67;;;2.10;99.90;;;;;;5072174;28;20224;-76
2020/12/28 12:26:45;;;;;;;8.10;7.37;;;2.00;99.90;;;;;;5074640;28;20205;-74
2020/12/28 12:29:10;;;;;;;7.73;7.10;;;2.00;99.90;;;;;;5074807;28;20191;-75
2020/12/28 12:31:36;;;;;;;8.83;7.97;;;1.90;99.90;;;;;;5074253;28;20169;-75
2020/12/28 12:34:02;;;;;;;7.57;6.87;;;1.90;99.90;;;;;;5073445;28;20636;-75
2020/12/28 12:36:27;;;;;;;6.97;6.37;;;1.90;99.90;;;;;;5073040;28;20193;-76
2020/12/28 12:38:53;;;;;;;5.93;5.43;;;2.00;99.90;;;;;;5074836;28;20573;-76
2020/12/28 12:41:20;;;;;;;5.53;5.10;;;2.00;99.90;;;;;;5073077;28;20181;-75
2020/12/28 12:43:47;;;;;;;4.70;4.30;;;2.00;99.90;;;;;;5074673;28;20183;-76
2020/12/28 12:46:13;;;;;;;4.40;3.97;;;2.00;99.90;;;;;;5073352;28;20197;-75